createdAt,value
2023-01-22T00:02:29.578Z,8.27
2023-01-22T00:05:31.263Z,7.15
2023-01-22T00:08:33.516Z,9.27
2023-01-22T00:11:35.209Z,8.02
2023-01-22T00:14:37.266Z,10.13
2023-01-22T00:17:38.964Z,8.98
2023-01-22T00:20:41.677Z,8.65
2023-01-22T00:23:43.428Z,8.45
2023-01-22T00:26:45.418Z,9.13
2023-01-22T00:29:47.046Z,9.00
2023-01-22T00:32:48.754Z,7.82
2023-01-22T00:35:50.373Z,8.35
2023-01-22T00:38:52.072Z,10.35
2023-01-22T00:41:53.751Z,10.40
2023-01-22T00:44:55.412Z,7.20
2023-01-22T00:47:57.085Z,9.02
2023-01-22T00:50:59.017Z,8.43
2023-01-22T00:54:00.679Z,7.62
2023-01-22T00:57:02.308Z,9.55
2023-01-22T01:00:05.546Z,7.18
2023-01-22T01:03:26.035Z,7.75
2023-01-22T01:06:27.714Z,9.38
2023-01-22T01:09:29.399Z,9.32
2023-01-22T01:12:31.050Z,11.07
2023-01-22T01:15:32.718Z,9.20
2023-01-22T01:18:35.410Z,9.45
2023-01-22T01:21:37.102Z,9.25
2023-01-22T01:24:38.737Z,10.10
2023-01-22T01:27:40.373Z,9.50
2023-01-22T01:30:42.152Z,10.98
2023-01-22T01:33:43.921Z,8.02
2023-01-22T01:36:49.223Z,8.65
2023-01-22T01:39:53.799Z,9.55
2023-01-22T01:42:55.750Z,8.45
2023-01-22T01:45:59.775Z,8.48
2023-01-22T01:49:01.617Z,8.88
2023-01-22T01:52:09.128Z,9.13
2023-01-22T01:55:12.130Z,7.80
2023-01-22T01:58:21.486Z,6.47
2023-01-22T02:01:23.310Z,8.25
2023-01-22T02:04:26.932Z,9.20
2023-01-22T02:07:28.604Z,7.55
2023-01-22T02:10:30.436Z,6.62
2023-01-22T02:13:35.721Z,8.18
2023-01-22T02:16:37.517Z,5.47
2023-01-22T02:19:40.455Z,7.37
2023-01-22T02:22:42.104Z,6.97
2023-01-22T02:25:43.735Z,10.45
2023-01-22T02:28:45.359Z,8.95
2023-01-22T02:31:47.114Z,6.35
2023-01-22T02:34:48.945Z,10.88
2023-01-22T02:37:50.666Z,7.50
2023-01-22T02:40:52.303Z,7.32
2023-01-22T02:43:53.951Z,6.72
2023-01-22T02:46:55.638Z,5.72
2023-01-22T02:49:57.289Z,8.00
2023-01-22T02:52:58.913Z,8.27
2023-01-22T02:56:04.897Z,7.65
2023-01-22T02:59:06.576Z,8.35
2023-01-22T03:02:08.276Z,7.30
2023-01-22T03:05:09.952Z,6.70
2023-01-22T03:08:11.602Z,8.38
2023-01-22T03:11:13.330Z,8.15
2023-01-22T03:14:33.804Z,6.50
2023-01-22T03:17:53.835Z,9.48
2023-01-22T03:21:14.368Z,7.60
2023-01-22T03:24:16.022Z,7.37
2023-01-22T03:27:19.183Z,7.68
2023-01-22T03:30:20.831Z,7.37
2023-01-22T03:33:22.608Z,8.30
2023-01-22T03:36:24.281Z,7.20
2023-01-22T03:39:26.830Z,9.93
2023-01-22T03:42:28.591Z,8.95
2023-01-22T03:45:33.102Z,7.87
2023-01-22T03:48:34.828Z,6.30
2023-01-22T03:51:36.806Z,7.10
2023-01-22T03:54:38.620Z,9.10
2023-01-22T03:57:40.280Z,8.77
2023-01-22T04:00:41.957Z,8.43
2023-01-22T04:03:43.655Z,11.88
2023-01-22T04:06:45.308Z,9.48
2023-01-22T04:09:46.949Z,8.60
2023-01-22T04:12:48.622Z,8.32
2023-01-22T04:15:50.305Z,7.20
2023-01-22T04:18:51.952Z,6.47
2023-01-22T04:21:53.688Z,7.05
2023-01-22T04:24:55.395Z,8.70
2023-01-22T04:27:57.103Z,6.53
2023-01-22T04:30:59.897Z,8.27
2023-01-22T04:34:01.605Z,7.22
2023-01-22T04:37:03.236Z,7.93
2023-01-22T04:40:05.718Z,9.27
2023-01-22T04:43:08.587Z,9.18
2023-01-22T04:46:10.377Z,7.28
2023-01-22T04:49:12.074Z,8.48
2023-01-22T04:52:13.787Z,6.20
2023-01-22T04:55:15.472Z,10.32
2023-01-22T04:58:17.181Z,8.88
2023-01-22T05:01:18.936Z,6.40
2023-01-22T05:04:21.883Z,7.90
2023-01-22T05:07:23.559Z,9.30
2023-01-22T05:10:25.767Z,7.57
2023-01-22T05:13:27.449Z,9.77
2023-01-22T05:16:29.125Z,7.82
2023-01-22T05:19:30.764Z,8.63
2023-01-22T05:22:32.410Z,8.60
2023-01-22T05:25:34.121Z,8.30
2023-01-22T05:28:36.012Z,10.43
2023-01-22T05:31:37.877Z,7.80
2023-01-22T05:34:39.566Z,10.90
2023-01-22T05:37:41.227Z,8.20
2023-01-22T05:40:42.887Z,9.68
2023-01-22T05:43:44.559Z,7.35
2023-01-22T05:46:46.235Z,8.35
2023-01-22T05:49:47.937Z,13.95
2023-01-22T05:52:54.346Z,8.52
2023-01-22T05:56:00.201Z,8.23
2023-01-22T05:59:01.902Z,9.65
2023-01-22T06:02:03.709Z,13.40
2023-01-22T06:05:05.918Z,8.85
2023-01-22T06:08:07.581Z,8.18
2023-01-22T06:11:15.052Z,10.18
2023-01-22T06:17:18.320Z,9.52
2023-01-22T06:20:20.218Z,12.13
2023-01-22T06:23:22.881Z,12.75
2023-01-22T06:26:24.577Z,9.68
2023-01-22T06:29:26.325Z,9.75
2023-01-22T06:32:28.005Z,13.35
2023-01-22T06:35:29.727Z,11.88
2023-01-22T06:38:31.951Z,10.60
2023-01-22T06:41:33.603Z,9.60
2023-01-22T06:44:35.294Z,10.75
2023-01-22T06:47:37.162Z,12.02
2023-01-22T06:50:38.896Z,12.60
2023-01-22T06:53:40.637Z,21.62
2023-01-22T06:56:42.279Z,31.58
2023-01-22T06:59:43.965Z,21.50
2023-01-22T07:02:45.624Z,16.00
2023-01-22T07:05:55.213Z,11.30
2023-01-22T07:08:57.051Z,11.65
2023-01-22T07:12:01.087Z,10.38
2023-01-22T07:15:03.070Z,9.63
2023-01-22T07:18:04.835Z,10.68
2023-01-22T07:21:06.809Z,10.85
2023-01-22T07:24:09.975Z,13.70
2023-01-22T07:27:11.644Z,12.10
2023-01-22T07:30:13.828Z,13.13
2023-01-22T07:33:16.560Z,11.15
2023-01-22T07:36:18.231Z,12.55
2023-01-22T07:39:19.953Z,11.75
2023-01-22T07:42:21.738Z,11.55
2023-01-22T07:45:27.241Z,15.25
2023-01-22T07:48:29.280Z,12.55
2023-01-22T07:51:31.121Z,12.32
2023-01-22T07:54:36.286Z,12.98
2023-01-22T07:57:38.052Z,14.00
2023-01-22T08:00:39.793Z,14.07
2023-01-22T08:03:41.542Z,13.68
2023-01-22T08:06:43.254Z,12.02
2023-01-22T08:09:45.019Z,13.70
2023-01-22T08:12:47.030Z,12.60
2023-01-22T08:15:48.703Z,13.60
2023-01-22T08:18:50.404Z,13.57
2023-01-22T08:21:52.056Z,12.68
2023-01-22T08:24:54.239Z,14.70
2023-01-22T08:27:55.966Z,11.23
2023-01-22T08:31:03.437Z,14.77
2023-01-22T08:37:07.428Z,17.62
2023-01-22T08:40:10.831Z,17.02
2023-01-22T08:43:12.505Z,14.13
2023-01-22T08:46:14.566Z,12.63
2023-01-22T08:49:17.023Z,12.30
2023-01-22T08:52:18.691Z,13.20
2023-01-22T08:55:20.465Z,18.10
2023-01-22T08:58:22.396Z,14.65
2023-01-22T09:01:24.134Z,13.77
2023-01-22T09:04:26.546Z,15.30
2023-01-22T09:07:28.245Z,14.18
2023-01-22T09:10:29.907Z,10.82
2023-01-22T09:13:31.679Z,18.48
2023-01-22T09:16:33.829Z,33.40
2023-01-22T09:19:35.586Z,21.30
2023-01-22T09:22:37.224Z,14.90
2023-01-22T09:25:38.923Z,14.50
2023-01-22T09:28:40.700Z,13.25
2023-01-22T09:31:42.413Z,16.62
2023-01-22T09:34:44.101Z,14.70
2023-01-22T09:37:45.799Z,13.75
2023-01-22T09:41:03.005Z,17.27
2023-01-22T09:44:25.076Z,15.50
2023-01-22T09:47:42.130Z,17.95
2023-01-22T09:50:44.563Z,14.90
2023-01-22T09:53:56.294Z,20.27
2023-01-22T09:57:01.491Z,15.60
2023-01-22T10:00:03.610Z,15.15
2023-01-22T10:03:28.696Z,16.85
2023-01-22T10:06:31.500Z,19.67
2023-01-22T10:09:34.641Z,17.48
2023-01-22T10:12:36.337Z,15.10
2023-01-22T10:15:38.122Z,18.20
2023-01-22T10:18:46.429Z,15.88
2023-01-22T10:21:52.248Z,23.17
2023-01-22T10:24:54.910Z,15.52
2023-01-22T10:27:59.758Z,18.60
2023-01-22T10:31:01.529Z,18.15
2023-01-22T10:34:33.336Z,16.73
2023-01-22T10:37:53.010Z,12.23
2023-01-22T10:40:59.893Z,15.65
2023-01-22T10:44:26.722Z,13.45
2023-01-22T10:47:28.556Z,16.37
2023-01-22T10:50:30.218Z,15.40
2023-01-22T10:53:35.041Z,15.93
2023-01-22T10:56:40.455Z,16.00
2023-01-22T10:59:50.090Z,15.68
2023-01-22T11:02:52.217Z,12.32
2023-01-22T11:05:59.101Z,14.02
2023-01-22T11:09:33.110Z,13.38
2023-01-22T11:12:40.273Z,14.80
2023-01-22T11:15:48.526Z,11.93
2023-01-22T11:19:01.040Z,13.75
2023-01-22T11:22:11.950Z,18.42
2023-01-22T11:25:13.828Z,18.00
2023-01-22T11:28:29.280Z,16.80
2023-01-22T11:31:43.103Z,18.65
2023-01-22T11:35:17.187Z,14.30
2023-01-22T11:38:30.830Z,71.37
2023-01-22T11:42:11.635Z,21.30
2023-01-22T11:45:16.298Z,17.87
2023-01-22T11:49:04.713Z,15.10
2023-01-22T11:52:15.442Z,18.60
2023-01-22T11:55:17.297Z,21.23
2023-01-22T11:58:27.652Z,21.27
2023-01-22T12:01:49.310Z,18.62
2023-01-22T12:04:51.067Z,17.92
2023-01-22T12:08:01.708Z,16.10
2023-01-22T12:11:11.338Z,34.35
2023-01-22T12:14:47.653Z,15.82
2023-01-22T12:18:18.246Z,18.60
2023-01-22T12:21:32.584Z,25.67
2023-01-22T12:24:43.341Z,16.50
2023-01-22T12:27:55.331Z,17.98
2023-01-22T12:31:24.343Z,16.48
2023-01-22T12:34:32.819Z,19.20
2023-01-22T12:37:49.211Z,23.30
2023-01-22T12:41:09.379Z,20.83
2023-01-22T12:44:17.154Z,21.50
2023-01-22T12:47:26.998Z,28.35
2023-01-22T12:50:29.534Z,23.58
2023-01-22T12:53:39.222Z,51.72
2023-01-22T12:56:41.004Z,37.45
2023-01-22T12:59:54.419Z,27.45
2023-01-22T13:02:57.273Z,18.00
2023-01-22T13:06:00.449Z,18.58
2023-01-22T13:09:05.016Z,25.60
2023-01-22T13:12:37.523Z,27.48
2023-01-22T13:15:39.811Z,17.90
2023-01-22T13:18:44.875Z,16.98
2023-01-22T13:21:47.434Z,23.20
2023-01-22T13:24:54.577Z,23.35
2023-01-22T13:27:57.811Z,25.17
2023-01-22T13:31:02.456Z,23.35
2023-01-22T13:34:10.948Z,21.08
2023-01-22T13:37:26.658Z,36.92
2023-01-22T13:40:37.078Z,33.25
2023-01-22T13:43:45.420Z,46.25
2023-01-22T13:46:48.452Z,57.58
2023-01-22T13:49:50.422Z,61.97
2023-01-22T13:52:52.992Z,29.65
2023-01-22T13:55:55.382Z,35.60
2023-01-22T13:59:18.202Z,24.27
2023-01-22T14:02:21.943Z,21.60
2023-01-22T14:05:26.451Z,35.35
2023-01-22T14:08:28.309Z,25.62
2023-01-22T14:11:41.393Z,28.00
2023-01-22T14:14:43.958Z,32.40
2023-01-22T14:17:48.011Z,28.12
2023-01-22T14:20:51.758Z,19.50
2023-01-22T14:23:54.187Z,17.33
2023-01-22T14:26:57.980Z,21.25
2023-01-22T14:30:00.159Z,17.80
2023-01-22T14:33:03.125Z,19.90
2023-01-22T14:36:06.161Z,25.77
2023-01-22T14:39:08.581Z,23.15
2023-01-22T14:42:10.697Z,24.90
2023-01-22T14:45:16.462Z,39.65
2023-01-22T14:48:21.561Z,32.95
2023-01-22T14:51:24.102Z,37.22
2023-01-22T14:54:26.429Z,28.40
2023-01-22T14:57:28.507Z,25.05
2023-01-22T15:00:30.980Z,31.73
2023-01-22T15:03:33.830Z,32.97
2023-01-22T15:06:35.730Z,24.87
2023-01-22T15:09:39.325Z,29.92
2023-01-22T15:12:46.851Z,31.87
2023-01-22T15:18:55.837Z,29.65
2023-01-22T15:21:58.025Z,28.93
2023-01-22T15:24:59.800Z,25.25
2023-01-22T15:28:06.686Z,26.40
2023-01-22T15:31:08.467Z,27.50
2023-01-22T15:34:10.664Z,28.23
2023-01-22T15:37:14.886Z,26.17
2023-01-22T15:40:17.219Z,49.78
2023-01-22T15:43:22.068Z,39.35
2023-01-22T15:46:28.213Z,24.05
2023-01-22T15:49:30.477Z,22.42
2023-01-22T15:52:32.853Z,24.35
2023-01-22T15:55:35.999Z,19.00
2023-01-22T15:58:38.656Z,20.58
2023-01-22T16:01:41.319Z,17.73
2023-01-22T16:04:43.757Z,21.42
2023-01-22T16:07:46.234Z,15.25
2023-01-22T16:10:57.929Z,20.05
2023-01-22T16:14:01.110Z,24.35
2023-01-22T16:17:03.715Z,23.62
2023-01-22T16:20:06.875Z,28.05
2023-01-22T16:23:09.732Z,33.97
2023-01-22T16:26:21.510Z,32.80
2023-01-22T16:29:25.419Z,44.58
2023-01-22T16:32:27.883Z,45.25
2023-01-22T16:35:30.685Z,50.35
2023-01-22T16:38:34.532Z,43.78
2023-01-22T16:41:37.921Z,33.63
2023-01-22T16:44:40.136Z,35.58
2023-01-22T16:47:42.957Z,33.10
2023-01-22T16:50:45.751Z,35.63
2023-01-22T16:53:48.633Z,21.67
2023-01-22T16:56:51.658Z,47.88
2023-01-22T16:59:55.639Z,65.80
2023-01-22T17:03:00.372Z,53.83
2023-01-22T17:06:02.814Z,63.10
2023-01-22T17:09:05.130Z,49.40
2023-01-22T17:12:09.033Z,45.17
2023-01-22T17:15:12.869Z,48.87
2023-01-22T17:18:15.621Z,36.55
2023-01-22T17:21:19.943Z,36.03
2023-01-22T17:24:23.342Z,33.83
2023-01-22T17:27:26.411Z,29.98
2023-01-22T17:30:30.444Z,35.63
2023-01-22T17:33:33.489Z,31.23
2023-01-22T17:36:35.930Z,34.30
2023-01-22T17:39:39.306Z,48.15
2023-01-22T17:42:47.024Z,54.95
2023-01-22T17:45:50.781Z,55.70
2023-01-22T17:48:53.410Z,66.70
2023-01-22T17:51:57.240Z,43.78
2023-01-22T17:55:00.558Z,54.60
2023-01-22T17:58:08.474Z,45.58
2023-01-22T18:01:13.342Z,31.23
2023-01-22T18:04:16.385Z,24.17
2023-01-22T18:07:19.225Z,22.75
2023-01-22T18:10:21.497Z,20.75
2023-01-22T18:13:24.871Z,19.62
2023-01-22T18:16:31.006Z,16.75
2023-01-22T18:19:33.615Z,17.33
2023-01-22T18:22:36.275Z,19.90
2023-01-22T18:25:50.527Z,16.42
2023-01-22T18:28:57.321Z,20.15
2023-01-22T18:31:59.987Z,16.87
2023-01-22T18:35:04.793Z,17.30
2023-01-22T18:38:06.909Z,17.80
2023-01-22T18:41:15.867Z,16.70
2023-01-22T18:44:20.737Z,23.73
2023-01-22T18:47:24.718Z,16.50
2023-01-22T18:50:27.172Z,20.48
2023-01-22T18:53:31.455Z,19.60
2023-01-22T18:56:34.892Z,16.20
2023-01-22T18:59:37.577Z,16.87
2023-01-22T19:02:58.729Z,18.95
2023-01-22T19:06:04.594Z,20.48
2023-01-22T19:09:14.980Z,14.85
2023-01-22T19:12:19.761Z,17.87
2023-01-22T19:15:24.555Z,23.17
2023-01-22T19:18:29.366Z,20.17
2023-01-22T19:21:32.447Z,21.27
2023-01-22T19:24:36.028Z,24.27
2023-01-22T19:27:40.126Z,21.45
2023-01-22T19:30:43.056Z,24.65
2023-01-22T19:33:48.050Z,19.17
2023-01-22T19:36:56.344Z,25.45
2023-01-22T19:39:59.388Z,24.65
2023-01-22T19:43:02.378Z,25.45
2023-01-22T19:46:11.219Z,24.12
2023-01-22T19:49:14.389Z,24.10
2023-01-22T19:52:22.383Z,24.83
2023-01-22T19:55:27.031Z,26.48
2023-01-22T19:58:29.902Z,27.73
2023-01-22T20:01:33.677Z,23.73
2023-01-22T20:04:36.285Z,23.67
2023-01-22T20:07:42.290Z,27.60
2023-01-22T20:10:45.017Z,24.90
2023-01-22T20:13:49.461Z,26.30
2023-01-22T20:16:52.716Z,26.92
2023-01-22T20:19:57.123Z,24.30
2023-01-22T20:23:02.622Z,25.42
2023-01-22T20:26:09.447Z,29.83
2023-01-22T20:29:17.067Z,30.35
2023-01-22T20:32:21.958Z,26.08
2023-01-22T20:35:25.955Z,27.45
2023-01-22T20:38:29.621Z,24.40
2023-01-22T20:41:34.826Z,29.00
2023-01-22T20:44:37.623Z,24.12
2023-01-22T20:47:43.048Z,26.62
2023-01-22T20:50:45.890Z,25.35
2023-01-22T20:53:50.334Z,33.25
2023-01-22T20:56:53.664Z,31.85
2023-01-22T20:59:56.362Z,31.37
2023-01-22T21:03:00.462Z,38.45
2023-01-22T21:06:04.801Z,34.17
2023-01-22T21:09:10.231Z,35.38
2023-01-22T21:12:14.140Z,36.33
2023-01-22T21:15:16.743Z,33.78
2023-01-22T21:18:21.229Z,43.65
2023-01-22T21:21:24.637Z,42.97
2023-01-22T21:24:29.119Z,33.88
2023-01-22T21:27:31.505Z,31.55
2023-01-22T21:30:35.251Z,26.87
2023-01-22T21:33:38.790Z,31.08
2023-01-22T21:36:45.098Z,28.58
2023-01-22T21:39:46.992Z,27.87
2023-01-22T21:43:08.188Z,27.08
2023-01-22T21:46:22.514Z,34.33
2023-01-22T21:49:25.049Z,33.15
2023-01-22T21:52:27.263Z,39.63
2023-01-22T21:55:30.228Z,41.17
2023-01-22T21:58:32.007Z,41.45
2023-01-22T22:01:34.293Z,40.05
2023-01-22T22:04:36.053Z,34.35
2023-01-22T22:07:37.737Z,36.15
2023-01-22T22:10:39.374Z,39.05
2023-01-22T22:13:41.126Z,39.20
2023-01-22T22:16:46.006Z,34.97
2023-01-22T22:19:47.707Z,38.17
2023-01-22T22:22:49.359Z,39.40
2023-01-22T22:25:51.151Z,40.90
2023-01-22T22:28:53.327Z,41.08
2023-01-22T22:31:55.644Z,42.35
2023-01-22T22:34:57.370Z,45.17
2023-01-22T22:37:59.034Z,37.97
2023-01-22T22:41:10.691Z,40.35
2023-01-22T22:44:13.319Z,36.83
2023-01-22T22:47:14.984Z,39.72
2023-01-22T22:50:17.170Z,34.92
2023-01-22T22:53:18.953Z,33.90
2023-01-22T22:56:20.839Z,35.22
2023-01-22T22:59:22.479Z,34.20
2023-01-22T23:02:24.126Z,33.95
2023-01-22T23:05:25.810Z,35.72
2023-01-22T23:08:27.437Z,34.75
2023-01-22T23:11:32.254Z,31.02
2023-01-22T23:14:33.961Z,35.10
2023-01-22T23:17:35.605Z,31.52
2023-01-22T23:20:37.310Z,36.53
2023-01-22T23:23:39.529Z,34.10
2023-01-22T23:26:43.099Z,33.80
2023-01-22T23:29:44.742Z,36.70
2023-01-22T23:32:46.490Z,39.72
2023-01-22T23:35:51.225Z,34.63
2023-01-22T23:38:53.267Z,34.45
2023-01-22T23:41:54.883Z,36.38
2023-01-22T23:44:56.524Z,37.22
2023-01-22T23:47:58.155Z,38.40
2023-01-22T23:51:00.752Z,37.00
2023-01-22T23:54:02.429Z,39.65
2023-01-22T23:57:04.114Z,33.92
